createdAt,value
2022-08-19T00:01:22.010Z,3.96
2022-08-19T00:06:30.744Z,3.96
2022-08-19T00:11:39.854Z,3.96
2022-08-19T00:16:48.152Z,3.98
2022-08-19T00:21:56.250Z,3.96
2022-08-19T00:27:03.409Z,3.96
2022-08-19T00:32:11.925Z,3.96
2022-08-19T00:37:20.008Z,3.96
2022-08-19T00:42:27.384Z,3.96
2022-08-19T00:47:35.772Z,3.97
2022-08-19T00:52:43.678Z,3.96
2022-08-19T00:57:51.723Z,3.96
2022-08-19T01:03:00.206Z,3.95
2022-08-19T01:08:07.626Z,3.97
2022-08-19T01:13:15.098Z,3.96
2022-08-19T01:18:22.886Z,3.96
2022-08-19T01:23:29.503Z,3.96
2022-08-19T01:28:37.084Z,3.95
2022-08-19T01:33:50.869Z,3.97
2022-08-19T01:38:58.218Z,3.96
2022-08-19T01:44:06.266Z,3.96
2022-08-19T01:49:14.482Z,3.95
2022-08-19T01:54:23.439Z,3.95
2022-08-19T01:59:32.751Z,3.95
2022-08-19T02:04:41.044Z,3.93
2022-08-19T02:09:49.153Z,3.95
2022-08-19T02:14:56.869Z,3.96
2022-08-19T02:20:04.571Z,3.95
2022-08-19T02:25:12.372Z,3.95
2022-08-19T02:30:19.329Z,3.96
2022-08-19T02:35:27.447Z,3.94
2022-08-19T02:40:34.598Z,3.95
2022-08-19T02:45:42.592Z,3.94
2022-08-19T02:55:47.634Z,3.93
2022-08-19T03:00:53.683Z,3.95
2022-08-19T03:06:01.827Z,3.94
2022-08-19T03:11:09.018Z,3.94
2022-08-19T03:16:17.377Z,3.95
2022-08-19T03:21:24.898Z,3.95
2022-08-19T03:26:31.919Z,3.93
2022-08-19T03:31:39.769Z,3.93
2022-08-19T03:36:46.955Z,3.94
2022-08-19T03:41:54.138Z,3.93
2022-08-19T03:47:02.823Z,3.93
2022-08-19T03:52:09.997Z,3.94
2022-08-19T03:57:17.650Z,3.94
2022-08-19T04:02:24.414Z,3.94
2022-08-19T04:07:32.975Z,3.93
2022-08-19T04:12:41.587Z,3.94
2022-08-19T04:17:49.947Z,3.94
2022-08-19T04:22:57.529Z,3.94
2022-08-19T04:28:05.169Z,3.93
2022-08-19T04:33:13.197Z,3.95
2022-08-19T04:38:21.017Z,3.93
2022-08-19T04:43:28.483Z,3.94
2022-08-19T04:48:36.064Z,3.94
2022-08-19T04:53:44.707Z,3.93
2022-08-19T04:58:52.566Z,3.94
2022-08-19T05:04:00.249Z,3.93
2022-08-19T05:09:09.121Z,3.95
2022-08-19T05:14:16.545Z,3.93
2022-08-19T05:19:23.737Z,3.94
2022-08-19T05:24:32.178Z,3.93
2022-08-19T05:29:41.606Z,3.93
2022-08-19T05:34:50.964Z,3.93
2022-08-19T05:40:00.275Z,3.94
2022-08-19T05:45:07.424Z,3.93
2022-08-19T05:50:15.290Z,3.93
2022-08-19T05:55:23.313Z,3.94
2022-08-19T06:00:29.728Z,3.95
2022-08-19T06:05:36.892Z,3.92
2022-08-19T06:10:45.276Z,3.95
2022-08-19T06:15:53.696Z,3.96
2022-08-19T06:21:03.650Z,3.95
2022-08-19T06:26:10.821Z,3.95
2022-08-19T06:31:18.239Z,3.95
2022-08-19T06:36:25.950Z,3.96
2022-08-19T06:41:34.715Z,3.96
2022-08-19T06:46:42.133Z,3.96
2022-08-19T06:51:50.438Z,3.96
2022-08-19T06:56:58.157Z,3.98
2022-08-19T07:02:06.442Z,3.99
2022-08-19T07:07:15.929Z,4.00
2022-08-19T07:12:24.788Z,3.99
2022-08-19T07:17:32.525Z,4.01
2022-08-19T07:22:40.812Z,4.00
2022-08-19T07:27:48.907Z,3.99
2022-08-19T07:32:55.922Z,4.00
2022-08-19T07:38:03.782Z,4.01
2022-08-19T07:43:12.094Z,4.01
2022-08-19T07:48:20.212Z,4.01
2022-08-19T07:53:27.900Z,4.02
2022-08-19T07:58:36.892Z,3.99
2022-08-19T08:03:44.239Z,3.99
2022-08-19T08:08:50.814Z,3.99
2022-08-19T08:13:59.193Z,3.99
2022-08-19T08:19:07.370Z,4.00
2022-08-19T08:24:16.078Z,3.99
2022-08-19T08:29:23.418Z,4.00
2022-08-19T08:34:31.449Z,3.99
2022-08-19T08:39:39.670Z,4.00
2022-08-19T08:44:47.453Z,4.00
2022-08-19T08:49:54.785Z,4.00
2022-08-19T08:55:01.338Z,4.00
2022-08-19T09:00:08.543Z,4.02
2022-08-19T09:05:15.090Z,4.00
2022-08-19T09:10:23.584Z,4.00
2022-08-19T09:15:30.781Z,4.00
2022-08-19T09:20:38.604Z,4.01
2022-08-19T09:25:47.610Z,4.02
2022-08-19T09:30:55.192Z,4.02
2022-08-19T09:36:03.292Z,4.01
2022-08-19T09:41:10.653Z,4.02
2022-08-19T09:46:17.212Z,4.01
2022-08-19T09:51:24.565Z,4.00
2022-08-19T09:56:32.464Z,4.02
2022-08-19T10:02:21.715Z,4.02
2022-08-19T10:07:30.014Z,4.03
2022-08-19T10:12:37.660Z,4.03
2022-08-19T10:17:44.950Z,4.03
2022-08-19T10:22:54.255Z,4.04
2022-08-19T10:28:01.006Z,4.02
2022-08-19T10:33:09.017Z,4.03
2022-08-19T10:38:21.968Z,4.03
2022-08-19T10:43:31.528Z,4.04
2022-08-19T10:48:39.776Z,4.03
2022-08-19T10:53:47.134Z,4.05
2022-08-19T10:58:54.569Z,4.05
2022-08-19T11:04:01.691Z,4.03
2022-08-19T11:09:10.382Z,4.05
2022-08-19T11:14:18.091Z,4.03
2022-08-19T11:19:26.300Z,4.03
2022-08-19T11:24:33.866Z,4.03
2022-08-19T11:29:41.687Z,4.03
2022-08-19T11:34:48.344Z,4.03
2022-08-19T11:39:56.140Z,4.05
2022-08-19T11:45:03.450Z,4.04
2022-08-19T11:50:10.407Z,4.04
2022-08-19T11:55:18.217Z,4.04
2022-08-19T12:00:25.989Z,4.03
2022-08-19T12:05:35.000Z,4.04
2022-08-19T12:10:42.798Z,4.03
2022-08-19T12:15:49.984Z,4.03
2022-08-19T12:20:57.187Z,4.04
2022-08-19T12:26:05.018Z,4.03
2022-08-19T12:31:12.377Z,4.05
2022-08-19T12:36:19.996Z,4.05
2022-08-19T12:41:29.132Z,4.06
2022-08-19T12:46:35.769Z,4.04
2022-08-19T12:51:43.618Z,4.05
2022-08-19T12:56:51.826Z,4.07
2022-08-19T13:01:59.854Z,4.04
2022-08-19T13:07:07.739Z,4.05
2022-08-19T13:12:14.978Z,4.05
2022-08-19T13:17:22.654Z,4.05
2022-08-19T13:22:33.346Z,4.06
2022-08-19T13:27:40.598Z,4.05
2022-08-19T13:32:47.589Z,4.05
2022-08-19T13:37:55.797Z,4.04
2022-08-19T13:43:02.859Z,4.06
2022-08-19T13:48:09.829Z,4.06
2022-08-19T13:53:17.660Z,4.06
2022-08-19T13:58:24.855Z,4.06
2022-08-19T14:03:33.731Z,4.07
2022-08-19T14:08:41.464Z,4.07
2022-08-19T14:13:50.116Z,4.07
2022-08-19T14:19:00.567Z,4.07
2022-08-19T14:24:10.745Z,4.07
2022-08-19T14:29:18.619Z,4.07
2022-08-19T14:34:26.534Z,4.07
2022-08-19T14:39:33.977Z,4.07
2022-08-19T14:44:41.812Z,4.07
2022-08-19T14:49:50.088Z,4.07
2022-08-19T14:54:56.885Z,4.07
2022-08-19T15:00:04.694Z,4.07
2022-08-19T15:05:17.015Z,4.07
2022-08-19T15:10:22.969Z,4.07
2022-08-19T15:15:30.517Z,4.07
2022-08-19T15:20:37.369Z,4.06
2022-08-19T15:25:44.242Z,4.08
2022-08-19T15:30:51.715Z,4.08
2022-08-19T15:35:58.278Z,4.07
2022-08-19T15:41:05.491Z,4.09
2022-08-19T15:46:13.289Z,4.08
2022-08-19T15:51:19.895Z,4.08
2022-08-19T15:56:27.128Z,4.08
2022-08-19T16:01:34.727Z,4.08
2022-08-19T16:06:41.661Z,4.06
2022-08-19T16:11:49.818Z,4.06
2022-08-19T16:16:57.202Z,4.06
2022-08-19T16:22:05.666Z,4.07
2022-08-19T16:27:12.878Z,4.07
2022-08-19T16:32:21.186Z,4.07
2022-08-19T16:37:27.897Z,4.07
2022-08-19T16:42:35.825Z,4.08
2022-08-19T16:47:43.014Z,4.07
2022-08-19T16:52:51.123Z,4.06
2022-08-19T16:57:59.186Z,4.09
2022-08-19T17:03:08.095Z,4.08
2022-08-19T17:08:15.639Z,4.07
2022-08-19T17:13:23.255Z,4.07
2022-08-19T17:18:30.614Z,4.06
2022-08-19T17:23:38.651Z,4.07
2022-08-19T17:28:45.050Z,4.06
2022-08-19T17:33:52.218Z,4.06
2022-08-19T17:38:58.778Z,4.03
2022-08-19T17:44:07.825Z,4.06
2022-08-19T17:49:15.669Z,4.05
2022-08-19T17:54:23.319Z,4.06
2022-08-19T17:59:30.187Z,4.06
2022-08-19T18:04:38.326Z,4.06
2022-08-19T18:09:46.445Z,4.06
2022-08-19T18:14:54.295Z,4.05
2022-08-19T18:20:02.490Z,4.06
2022-08-19T18:25:09.373Z,4.05
2022-08-19T18:30:17.442Z,4.06
2022-08-19T18:35:25.386Z,4.04
2022-08-19T18:40:32.473Z,4.05
2022-08-19T18:45:40.462Z,4.05
2022-08-19T18:50:47.293Z,4.05
2022-08-19T18:55:55.651Z,4.04
2022-08-19T19:01:03.322Z,4.06
2022-08-19T19:06:11.890Z,4.05
2022-08-19T19:11:19.764Z,4.04
2022-08-19T19:16:26.877Z,4.05
2022-08-19T19:21:35.145Z,4.04
2022-08-19T19:26:43.039Z,4.04
2022-08-19T19:31:49.714Z,4.04
2022-08-19T19:36:57.214Z,4.04
2022-08-19T19:42:04.378Z,4.04
2022-08-19T19:47:12.843Z,4.03
2022-08-19T19:52:20.550Z,4.04
2022-08-19T19:57:28.680Z,4.04
2022-08-19T20:02:36.075Z,4.04
2022-08-19T20:07:44.726Z,4.04
2022-08-19T20:12:52.054Z,4.04
2022-08-19T20:18:00.410Z,4.04
2022-08-19T20:23:08.638Z,4.03
2022-08-19T20:28:16.426Z,4.04
2022-08-19T20:33:23.463Z,4.03
2022-08-19T20:38:30.668Z,4.03
2022-08-19T20:43:37.865Z,4.03
2022-08-19T20:48:45.059Z,4.03
2022-08-19T20:53:52.257Z,4.03
2022-08-19T20:58:59.716Z,4.02
2022-08-19T21:04:07.813Z,4.03
2022-08-19T21:09:16.199Z,4.02
2022-08-19T21:14:25.040Z,4.02
2022-08-19T21:19:33.400Z,4.03
2022-08-19T21:24:40.601Z,4.02
2022-08-19T21:29:49.085Z,4.03
2022-08-19T21:34:56.851Z,4.03
2022-08-19T21:40:04.554Z,4.02
2022-08-19T21:45:13.119Z,4.02
2022-08-19T21:50:20.464Z,4.03
2022-08-19T21:55:26.933Z,4.01
2022-08-19T22:00:34.171Z,4.02
2022-08-19T22:05:42.278Z,4.02
2022-08-19T22:10:56.448Z,4.02
2022-08-19T22:16:05.120Z,4.02
2022-08-19T22:21:13.728Z,4.02
2022-08-19T22:26:20.377Z,4.01
2022-08-19T22:31:27.727Z,4.02
2022-08-19T22:36:35.560Z,4.01
2022-08-19T22:41:43.762Z,4.00
2022-08-19T22:46:50.583Z,4.02
2022-08-19T22:51:58.301Z,4.01
2022-08-19T22:57:09.560Z,4.01
2022-08-19T22:58:43.077Z,4.00
2022-08-19T23:03:49.977Z,3.97
2022-08-19T23:08:56.572Z,4.02
2022-08-19T23:14:05.016Z,4.02
2022-08-19T23:19:13.102Z,4.00
2022-08-19T23:24:21.726Z,4.01
2022-08-19T23:29:29.769Z,4.00
2022-08-19T23:34:37.049Z,4.02
2022-08-19T23:39:43.573Z,4.00
2022-08-19T23:44:51.449Z,4.00
2022-08-19T23:50:00.408Z,4.01
2022-08-19T23:55:09.512Z,4.00
